Ironwood, MI

8:44 AM CDT on October 24, 2014 (GMT -0500)
Doc's Weather Station | Change Station
CLOSE
Current Station
Personal Weather Station
Location: Bessemer, MI
Elevation: 1401 ft
Nearby Weather Stations

Elev 1401 ft 46.48 °N, 90.05 °W | Updated 5 seconds ago

Overcast
Overcast
46.2 °F
Feels Like 46 °F
N
1.0
Wind Variable Wind from SSE
Gusts 6.0 mph

Today
High -- | Low -- °F
--% Chance of Precip.
Yesterday
High -- | Low -- °F
Precip. -- in
7:30 AM 5:58 PM
New Moon, 0% visible
Pressure 29.96 in
Visibility 0.8 miles
Clouds Overcast 300 ft
Windchill 46 °F
Dew Point 45 °F
Humidity 96%
Rainfall 0.00 in
Snow Depth Not available.
UV 0.0 out of 12
Pollen 2.00 out of 12
Air Quality Not available.
Flu Activity Sporadic
METAR KD25 241335Z AUTO 21006KT 3/4SM BR OVC003 07/07 A2996 RMK AO2 T00650065

More Conditions Fewer Conditions

Pressure 29.96 in
Visibility 0.8 miles
Clouds Overcast 300 ft
Windchill 46 °F
Dew Point 45 °F
Humidity 96%
Rainfall 0.00 in
Snow Depth Not available.
UV 0.0 out of 12
Pollen 2.00 out of 12
Air Quality Not available.
Flu Activity Sporadic
METAR KD25 241335Z AUTO 21006KT 3/4SM BR OVC003 07/07 A2996 RMK AO2 T00650065

More Conditions Fewer Conditions

10-Day Weather Forecast

Almanac

Astronomy

Oct. 24, 2014 Rise Set
Actual Time 7:30 AM CDT 5:58 PM CDT
Civil Twilight 6:59 AM CDT 6:29 PM CDT
Nautical Twilight 6:24 AM CDT 7:04 PM CDT
Astronomical Twilight 5:49 AM CDT 7:39 PM CDT
Moon 8:11 AM CDT 6:35 PM CDT
Length of Visible Light 11h 29m
Length of Day
10h 27m
Tomorrow will be 3m 5s shorter.
New Moon, 0% of the Moon is Illuminated
Today
New Moon
Oct 30
First Quarter
Nov 6
Full
Nov 14
Last Quarter
Nov 22
New

Today's Extremes

State Highs State Lows

Community

WunderPhotos

Upload Photos

1,764,551 photos uploaded!

WunderBlogs® & News

Nearby

Snow Depth

Station Depth Elevation
No new snow has been reported.

Earthquake Activity

City Distance Mag. Time & Date
No recent earthquake activity has been reported nearby.
Minimum magnitude displayed is 2.5.

Coastal Water Temperatures

Place Temperature
No Stations Reporting

Nearby Weather Stations